Yarras Mount Seaview, New South Wales

5:56 PM EST on July 29, 2014 (GMT +1000)
Taree (YTRE) Elev 39 ft | 31.89 °S, 152.51 °E | Change Station

Current weather conditions updated 56 minutes ago

Clear
Clear
66 °F
Feels Like 66 °F
N
6
Wind Variable Wind from West

Today
High -- | Low -- °F
--% Chance of Precip.
Yesterday
High -- | Low -- °F
Precip. -- in
6:41 AM 5:13 PM
Waxing Crescent, 5% visible
Pressure 30.04 in
Visibility -9999.0 miles
Clouds
Dew Point 34 °F
Humidity 30%
Rainfall 0.00 in
Snow Depth Not available.
UV Not available.
Pollen Not available.
Air Quality Not available.
Flu Activity Not available.
METAR YTRE 290700Z AUTO 26005KT //// // NCD 19/01 Q1017

More Conditions Fewer Conditions

Pressure 30.04 in
Visibility -9999.0 miles
Clouds
Dew Point 34 °F
Humidity 30%
Rainfall 0.00 in
Snow Depth Not available.
UV Not available.
Pollen Not available.
Air Quality Not available.
Flu Activity Not available.
METAR YTRE 290700Z AUTO 26005KT //// // NCD 19/01 Q1017

More Conditions Fewer Conditions

10-Day Weather Forecast

Almanac

Astronomy

Jul. 29, 2014 Rise Set
Actual Time 6:41 AM EST 5:13 PM EST
Civil Twilight 6:15 AM EST 5:39 PM EST
Nautical Twilight 5:46 AM EST 6:09 PM EST
Astronomical Twilight 5:17 AM EST 6:37 PM EST
Moon 7:37 AM EST 7:19 PM EST
Length of Visible Light 11h 24m
Length of Day
10h 32m
Tomorrow will be 1m 18s longer.
Waxing Crescent, 5% of the Moon is Illuminated
Today
Waxing Crescent
Aug 3
First Quarter
Aug 10
Full
Aug 17
Last Quarter
Aug 25
New

Yesterday's Extremes

Country Highs Country Lows

Community

WunderPhotos

Upload Photos

1,738,651 photos uploaded!

Nearby

Snow Depth

Not available.

Earthquake Activity

City Distance Mag. Time & Date
No recent earthquake activity has been reported nearby.
Minimum magnitude displayed is 2.5.

Coastal Water Temperatures

Place Temperature
No Stations Reporting

Nearby Weather Stations

There are no personal weather stations in this area.